aviador You're here:

KLAF Decoded Metar

LAFAYETTE in IN, USA
Report Time2017-08-24 00:54:00
UTC Time2017-08-24 01:08:43
Flight Rules vfr VFR
Wind280° at 04 kt
W.Decomp.*RWY 28: 4.0 kt HW 0.1 kt RCW
RWY 23: 2.5 kt HW 3.1 kt RCW
W.Rank280° ranks 6
Current wind is below 280° avg. (8.5)
Visibility9999 m
Phenomena:N/A
Clouds:Scattered 080 Hf
Expected CloudBase > 800 ft AGL from Temp-Dew spread
CeilingNone
Temp18°C (ISA +4)
Dew Point16°C (88% RH)
QNH1016 hPa
Density Alt1,230 ft
Elevation597 ft
Report Wrong Elevation
Raw Report
KLAF 240054Z 28004KT 10SM SCT080 18/16 A3001 RMK AO2 SLP158
T01780156=

Extra information for KLAF:More info

Metar Taf Metar & Taf Last 4 Metars F.Rules Stats Wind Profile Meteogram Temp Stats Airport Information Weather charts Add Link Nearby VenuesMetar ALERT Operation Metar Decoded Social comments

AIRNAV info for KLAF